sensor_id;sensor_type;location;lat;lon;timestamp;temperature;humidity
30999;DHT22;20549;50.042;8.968;2023-04-03T00:01:18;7.70;80.30
30999;DHT22;20549;50.042;8.968;2023-04-03T00:03:45;7.70;80.40
30999;DHT22;20549;50.042;8.968;2023-04-03T00:06:11;7.70;80.40
30999;DHT22;20549;50.042;8.968;2023-04-03T00:08:38;7.70;80.60
30999;DHT22;20549;50.042;8.968;2023-04-03T00:11:05;7.70;80.80
30999;DHT22;20549;50.042;8.968;2023-04-03T00:13:32;7.70;80.70
30999;DHT22;20549;50.042;8.968;2023-04-03T00:15:58;7.60;80.60
30999;DHT22;20549;50.042;8.968;2023-04-03T00:18:24;7.60;80.60
30999;DHT22;20549;50.042;8.968;2023-04-03T00:20:51;7.60;80.90
30999;DHT22;20549;50.042;8.968;2023-04-03T00:23:17;7.60;80.90
30999;DHT22;20549;50.042;8.968;2023-04-03T00:25:44;7.60;80.90
30999;DHT22;20549;50.042;8.968;2023-04-03T00:28:11;7.60;81.00
30999;DHT22;20549;50.042;8.968;2023-04-03T00:30:37;7.60;81.00
30999;DHT22;20549;50.042;8.968;2023-04-03T00:33:04;7.60;81.00
30999;DHT22;20549;50.042;8.968;2023-04-03T00:35:30;7.60;81.10
30999;DHT22;20549;50.042;8.968;2023-04-03T00:37:57;7.50;81.00
30999;DHT22;20549;50.042;8.968;2023-04-03T00:40:24;7.50;81.00
30999;DHT22;20549;50.042;8.968;2023-04-03T00:42:57;7.50;81.10
30999;DHT22;20549;50.042;8.968;2023-04-03T00:45:27;7.50;81.20
30999;DHT22;20549;50.042;8.968;2023-04-03T00:47:51;7.50;81.40
30999;DHT22;20549;50.042;8.968;2023-04-03T00:50:18;7.50;81.30
30999;DHT22;20549;50.042;8.968;2023-04-03T00:52:45;7.50;81.30
30999;DHT22;20549;50.042;8.968;2023-04-03T00:55:11;7.50;81.30
30999;DHT22;20549;50.042;8.968;2023-04-03T00:57:38;7.50;81.40
30999;DHT22;20549;50.042;8.968;2023-04-03T01:00:06;7.40;81.40
30999;DHT22;20549;50.042;8.968;2023-04-03T01:02:31;7.50;81.50
30999;DHT22;20549;50.042;8.968;2023-04-03T01:04:58;7.40;81.50
30999;DHT22;20549;50.042;8.968;2023-04-03T01:07:29;7.50;81.70
30999;DHT22;20549;50.042;8.968;2023-04-03T01:09:58;7.50;81.70
30999;DHT22;20549;50.042;8.968;2023-04-03T01:12:25;7.40;81.70
30999;DHT22;20549;50.042;8.968;2023-04-03T01:14:51;7.50;81.90
30999;DHT22;20549;50.042;8.968;2023-04-03T01:22:29;7.50;81.90
30999;DHT22;20549;50.042;8.968;2023-04-03T01:24:54;7.50;82.00
30999;DHT22;20549;50.042;8.968;2023-04-03T01:27:21;7.50;82.10
30999;DHT22;20549;50.042;8.968;2023-04-03T01:29:47;7.50;82.20
30999;DHT22;20549;50.042;8.968;2023-04-03T01:32:14;7.50;82.20
30999;DHT22;20549;50.042;8.968;2023-04-03T01:34:40;7.50;82.10
30999;DHT22;20549;50.042;8.968;2023-04-03T01:37:07;7.50;82.00
30999;DHT22;20549;50.042;8.968;2023-04-03T01:39:34;7.50;81.80
30999;DHT22;20549;50.042;8.968;2023-04-03T01:42:00;7.50;81.80
30999;DHT22;20549;50.042;8.968;2023-04-03T01:44:27;7.50;81.70
30999;DHT22;20549;50.042;8.968;2023-04-03T01:46:53;7.50;81.70
30999;DHT22;20549;50.042;8.968;2023-04-03T01:49:20;7.50;81.60
30999;DHT22;20549;50.042;8.968;2023-04-03T01:51:47;7.50;81.60
30999;DHT22;20549;50.042;8.968;2023-04-03T01:54:13;7.50;81.60
30999;DHT22;20549;50.042;8.968;2023-04-03T01:56:40;7.50;81.50
30999;DHT22;20549;50.042;8.968;2023-04-03T01:59:06;7.40;81.60
30999;DHT22;20549;50.042;8.968;2023-04-03T02:01:33;7.40;81.60
30999;DHT22;20549;50.042;8.968;2023-04-03T02:03:59;7.40;81.70
30999;DHT22;20549;50.042;8.968;2023-04-03T02:06:26;7.40;81.80
30999;DHT22;20549;50.042;8.968;2023-04-03T02:08:53;7.40;81.80
30999;DHT22;20549;50.042;8.968;2023-04-03T02:11:19;7.40;81.90
30999;DHT22;20549;50.042;8.968;2023-04-03T02:13:46;7.40;81.90
30999;DHT22;20549;50.042;8.968;2023-04-03T02:16:12;7.40;82.00
30999;DHT22;20549;50.042;8.968;2023-04-03T02:18:39;7.40;82.00
30999;DHT22;20549;50.042;8.968;2023-04-03T02:21:06;7.40;82.10
30999;DHT22;20549;50.042;8.968;2023-04-03T02:23:32;7.40;82.10
30999;DHT22;20549;50.042;8.968;2023-04-03T02:26:12;7.40;82.10
30999;DHT22;20549;50.042;8.968;2023-04-03T02:28:37;7.40;82.20
30999;DHT22;20549;50.042;8.968;2023-04-03T02:31:04;7.40;82.20
30999;DHT22;20549;50.042;8.968;2023-04-03T02:33:30;7.40;82.30
30999;DHT22;20549;50.042;8.968;2023-04-03T02:35:57;7.30;82.30
30999;DHT22;20549;50.042;8.968;2023-04-03T02:38:24;7.30;82.50
30999;DHT22;20549;50.042;8.968;2023-04-03T02:40:50;7.30;82.60
30999;DHT22;20549;50.042;8.968;2023-04-03T02:43:17;7.30;82.60
30999;DHT22;20549;50.042;8.968;2023-04-03T02:45:43;7.30;82.70
30999;DHT22;20549;50.042;8.968;2023-04-03T02:48:10;7.30;82.70
30999;DHT22;20549;50.042;8.968;2023-04-03T02:50:36;7.30;82.80
30999;DHT22;20549;50.042;8.968;2023-04-03T02:53:03;7.30;82.80
30999;DHT22;20549;50.042;8.968;2023-04-03T02:55:30;7.30;82.80
30999;DHT22;20549;50.042;8.968;2023-04-03T02:57:56;7.30;82.90
30999;DHT22;20549;50.042;8.968;2023-04-03T03:00:23;7.20;82.80
30999;DHT22;20549;50.042;8.968;2023-04-03T03:02:49;7.20;82.80
30999;DHT22;20549;50.042;8.968;2023-04-03T03:05:16;7.20;82.90
30999;DHT22;20549;50.042;8.968;2023-04-03T03:07:43;7.20;83.00
30999;DHT22;20549;50.042;8.968;2023-04-03T03:10:09;7.20;83.00
30999;DHT22;20549;50.042;8.968;2023-04-03T03:12:36;7.20;83.10
30999;DHT22;20549;50.042;8.968;2023-04-03T03:15:02;7.20;83.10
30999;DHT22;20549;50.042;8.968;2023-04-03T03:17:29;7.20;83.10
30999;DHT22;20549;50.042;8.968;2023-04-03T03:19:55;7.10;83.90
30999;DHT22;20549;50.042;8.968;2023-04-03T03:22:22;7.10;83.10
30999;DHT22;20549;50.042;8.968;2023-04-03T03:24:49;7.10;83.10
30999;DHT22;20549;50.042;8.968;2023-04-03T03:27:15;7.10;83.10
30999;DHT22;20549;50.042;8.968;2023-04-03T03:29:42;7.10;83.20
30999;DHT22;20549;50.042;8.968;2023-04-03T03:32:08;7.00;83.20
30999;DHT22;20549;50.042;8.968;2023-04-03T03:34:35;7.00;83.20
30999;DHT22;20549;50.042;8.968;2023-04-03T03:37:02;7.00;83.30
30999;DHT22;20549;50.042;8.968;2023-04-03T03:39:28;7.00;83.30
30999;DHT22;20549;50.042;8.968;2023-04-03T03:41:55;7.00;83.40
30999;DHT22;20549;50.042;8.968;2023-04-03T03:44:21;6.90;83.30
30999;DHT22;20549;50.042;8.968;2023-04-03T03:46:48;6.90;83.30
30999;DHT22;20549;50.042;8.968;2023-04-03T03:49:14;6.90;83.30
30999;DHT22;20549;50.042;8.968;2023-04-03T03:51:41;6.90;83.30
30999;DHT22;20549;50.042;8.968;2023-04-03T03:54:09;6.80;83.20
30999;DHT22;20549;50.042;8.968;2023-04-03T03:56:34;6.80;83.20
30999;DHT22;20549;50.042;8.968;2023-04-03T03:59:01;6.80;83.20
30999;DHT22;20549;50.042;8.968;2023-04-03T04:01:27;6.70;83.10
30999;DHT22;20549;50.042;8.968;2023-04-03T04:03:54;6.70;83.00
30999;DHT22;20549;50.042;8.968;2023-04-03T04:06:21;6.70;82.90
30999;DHT22;20549;50.042;8.968;2023-04-03T04:08:47;6.60;82.80
30999;DHT22;20549;50.042;8.968;2023-04-03T04:11:14;6.60;82.90
30999;DHT22;20549;50.042;8.968;2023-04-03T04:13:40;6.60;82.80
30999;DHT22;20549;50.042;8.968;2023-04-03T04:16:07;6.50;82.70
30999;DHT22;20549;50.042;8.968;2023-04-03T04:18:33;6.50;82.70
30999;DHT22;20549;50.042;8.968;2023-04-03T04:21:00;6.50;82.70
30999;DHT22;20549;50.042;8.968;2023-04-03T04:23:27;6.50;82.80
30999;DHT22;20549;50.042;8.968;2023-04-03T04:25:53;6.40;82.90
30999;DHT22;20549;50.042;8.968;2023-04-03T04:28:20;6.50;82.80
30999;DHT22;20549;50.042;8.968;2023-04-03T04:30:46;6.50;82.70
30999;DHT22;20549;50.042;8.968;2023-04-03T04:33:13;6.40;82.50
30999;DHT22;20549;50.042;8.968;2023-04-03T04:35:41;6.40;82.20
30999;DHT22;20549;50.042;8.968;2023-04-03T04:38:06;6.40;82.10
30999;DHT22;20549;50.042;8.968;2023-04-03T04:40:33;6.40;82.00
30999;DHT22;20549;50.042;8.968;2023-04-03T04:42:59;6.40;81.80
30999;DHT22;20549;50.042;8.968;2023-04-03T04:45:26;6.30;81.70
30999;DHT22;20549;50.042;8.968;2023-04-03T04:47:54;6.30;81.50
30999;DHT22;20549;50.042;8.968;2023-04-03T04:50:19;6.30;81.50
30999;DHT22;20549;50.042;8.968;2023-04-03T04:52:46;6.20;81.40
30999;DHT22;20549;50.042;8.968;2023-04-03T04:55:12;6.20;81.30
30999;DHT22;20549;50.042;8.968;2023-04-03T04:57:39;6.20;81.40
30999;DHT22;20549;50.042;8.968;2023-04-03T05:00:05;6.10;81.40
30999;DHT22;20549;50.042;8.968;2023-04-03T05:02:32;6.10;81.40
30999;DHT22;20549;50.042;8.968;2023-04-03T05:04:59;6.00;81.60
30999;DHT22;20549;50.042;8.968;2023-04-03T05:07:25;6.00;81.40
30999;DHT22;20549;50.042;8.968;2023-04-03T05:09:52;6.00;81.40
30999;DHT22;20549;50.042;8.968;2023-04-03T05:12:18;5.90;81.40
30999;DHT22;20549;50.042;8.968;2023-04-03T05:14:45;5.90;81.40
30999;DHT22;20549;50.042;8.968;2023-04-03T05:17:12;5.90;81.70
30999;DHT22;20549;50.042;8.968;2023-04-03T05:19:38;5.80;81.80
30999;DHT22;20549;50.042;8.968;2023-04-03T05:22:05;5.80;82.30
30999;DHT22;20549;50.042;8.968;2023-04-03T05:24:31;5.90;82.70
30999;DHT22;20549;50.042;8.968;2023-04-03T05:26:58;5.90;83.20
30999;DHT22;20549;50.042;8.968;2023-04-03T05:29:24;6.00;83.50
30999;DHT22;20549;50.042;8.968;2023-04-03T05:31:51;6.10;83.80
30999;DHT22;20549;50.042;8.968;2023-04-03T05:34:18;6.30;84.50
30999;DHT22;20549;50.042;8.968;2023-04-03T05:36:44;6.50;85.40
30999;DHT22;20549;50.042;8.968;2023-04-03T05:39:11;6.80;86.20
30999;DHT22;20549;50.042;8.968;2023-04-03T05:41:37;7.10;86.80
30999;DHT22;20549;50.042;8.968;2023-04-03T05:44:04;7.40;86.90
30999;DHT22;20549;50.042;8.968;2023-04-03T05:46:31;7.80;86.60
30999;DHT22;20549;50.042;8.968;2023-04-03T05:48:57;8.10;86.20
30999;DHT22;20549;50.042;8.968;2023-04-03T05:51:25;8.50;86.00
30999;DHT22;20549;50.042;8.968;2023-04-03T05:53:51;8.90;84.30
30999;DHT22;20549;50.042;8.968;2023-04-03T05:56:17;9.20;83.70
30999;DHT22;20549;50.042;8.968;2023-04-03T05:58:44;9.60;83.40
30999;DHT22;20549;50.042;8.968;2023-04-03T06:01:10;9.90;82.80
30999;DHT22;20549;50.042;8.968;2023-04-03T06:03:37;10.30;82.10
30999;DHT22;20549;50.042;8.968;2023-04-03T06:06:03;10.60;81.40
30999;DHT22;20549;50.042;8.968;2023-04-03T06:08:30;11.00;79.70
30999;DHT22;20549;50.042;8.968;2023-04-03T06:10:56;11.30;78.90
30999;DHT22;20549;50.042;8.968;2023-04-03T06:13:23;11.70;78.50
30999;DHT22;20549;50.042;8.968;2023-04-03T06:15:50;12.00;77.60
30999;DHT22;20549;50.042;8.968;2023-04-03T06:18:16;12.30;76.20
30999;DHT22;20549;50.042;8.968;2023-04-03T06:20:43;12.60;76.30
30999;DHT22;20549;50.042;8.968;2023-04-03T06:23:09;13.00;75.90
30999;DHT22;20549;50.042;8.968;2023-04-03T06:25:36;13.30;75.80
30999;DHT22;20549;50.042;8.968;2023-04-03T06:28:03;13.70;74.40
30999;DHT22;20549;50.042;8.968;2023-04-03T06:30:29;14.00;73.50
30999;DHT22;20549;50.042;8.968;2023-04-03T06:32:56;14.30;73.00
30999;DHT22;20549;50.042;8.968;2023-04-03T06:35:22;14.60;72.10
30999;DHT22;20549;50.042;8.968;2023-04-03T06:37:49;14.90;71.40
30999;DHT22;20549;50.042;8.968;2023-04-03T06:40:18;15.20;70.30
30999;DHT22;20549;50.042;8.968;2023-04-03T06:42:42;15.40;68.70
30999;DHT22;20549;50.042;8.968;2023-04-03T06:45:09;15.60;65.40
30999;DHT22;20549;50.042;8.968;2023-04-03T06:47:35;15.70;66.60
30999;DHT22;20549;50.042;8.968;2023-04-03T06:50:02;15.90;65.90
30999;DHT22;20549;50.042;8.968;2023-04-03T06:52:28;16.10;66.60
30999;DHT22;20549;50.042;8.968;2023-04-03T06:54:55;16.30;67.00
30999;DHT22;20549;50.042;8.968;2023-04-03T06:57:22;16.60;66.70
30999;DHT22;20549;50.042;8.968;2023-04-03T06:59:48;16.90;64.90
30999;DHT22;20549;50.042;8.968;2023-04-03T07:02:15;17.20;64.40
30999;DHT22;20549;50.042;8.968;2023-04-03T07:04:41;17.40;63.90
30999;DHT22;20549;50.042;8.968;2023-04-03T07:07:08;17.70;64.70
30999;DHT22;20549;50.042;8.968;2023-04-03T07:09:35;17.90;63.20
30999;DHT22;20549;50.042;8.968;2023-04-03T07:12:01;18.10;62.10
30999;DHT22;20549;50.042;8.968;2023-04-03T07:14:28;18.30;60.20
30999;DHT22;20549;50.042;8.968;2023-04-03T07:16:54;18.50;60.30
30999;DHT22;20549;50.042;8.968;2023-04-03T07:19:21;18.60;59.20
30999;DHT22;20549;50.042;8.968;2023-04-03T07:21:48;18.70;57.60
30999;DHT22;20549;50.042;8.968;2023-04-03T07:24:14;18.80;55.80
30999;DHT22;20549;50.042;8.968;2023-04-03T07:26:41;18.80;57.40
30999;DHT22;20549;50.042;8.968;2023-04-03T07:29:07;18.90;58.10
30999;DHT22;20549;50.042;8.968;2023-04-03T07:31:34;19.00;56.70
30999;DHT22;20549;50.042;8.968;2023-04-03T07:34:01;19.20;57.50
30999;DHT22;20549;50.042;8.968;2023-04-03T07:36:27;19.40;57.20
30999;DHT22;20549;50.042;8.968;2023-04-03T07:38:54;19.60;57.10
30999;DHT22;20549;50.042;8.968;2023-04-03T07:41:20;19.80;55.90
30999;DHT22;20549;50.042;8.968;2023-04-03T07:43:47;19.90;55.60
30999;DHT22;20549;50.042;8.968;2023-04-03T07:46:13;20.00;54.20
30999;DHT22;20549;50.042;8.968;2023-04-03T07:48:40;20.10;55.00
30999;DHT22;20549;50.042;8.968;2023-04-03T07:51:07;20.10;54.20
30999;DHT22;20549;50.042;8.968;2023-04-03T07:53:33;20.20;54.50
30999;DHT22;20549;50.042;8.968;2023-04-03T07:56:00;20.30;53.80
30999;DHT22;20549;50.042;8.968;2023-04-03T07:58:26;20.40;53.00
30999;DHT22;20549;50.042;8.968;2023-04-03T08:00:53;20.40;52.20
30999;DHT22;20549;50.042;8.968;2023-04-03T08:03:20;20.40;52.00
30999;DHT22;20549;50.042;8.968;2023-04-03T08:05:47;20.50;52.40
30999;DHT22;20549;50.042;8.968;2023-04-03T08:08:14;20.50;52.30
30999;DHT22;20549;50.042;8.968;2023-04-03T08:10:39;20.60;52.40
30999;DHT22;20549;50.042;8.968;2023-04-03T08:13:06;20.80;51.70
30999;DHT22;20549;50.042;8.968;2023-04-03T08:15:32;20.90;52.40
30999;DHT22;20549;50.042;8.968;2023-04-03T08:17:59;21.00;49.20
30999;DHT22;20549;50.042;8.968;2023-04-03T08:20:26;21.10;50.60
30999;DHT22;20549;50.042;8.968;2023-04-03T08:22:52;21.30;51.30
30999;DHT22;20549;50.042;8.968;2023-04-03T08:25:19;21.40;47.80
30999;DHT22;20549;50.042;8.968;2023-04-03T08:27:45;21.50;50.00
30999;DHT22;20549;50.042;8.968;2023-04-03T08:30:12;21.60;50.00
30999;DHT22;20549;50.042;8.968;2023-04-03T08:32:39;21.70;48.90
30999;DHT22;20549;50.042;8.968;2023-04-03T08:35:05;21.80;47.70
30999;DHT22;20549;50.042;8.968;2023-04-03T08:37:34;21.90;48.80
30999;DHT22;20549;50.042;8.968;2023-04-03T08:39:58;22.00;47.70
30999;DHT22;20549;50.042;8.968;2023-04-03T08:45:16;22.00;48.60
30999;DHT22;20549;50.042;8.968;2023-04-03T08:48:00;21.90;47.30
30999;DHT22;20549;50.042;8.968;2023-04-03T08:50:30;21.70;47.30
30999;DHT22;20549;50.042;8.968;2023-04-03T08:52:56;21.40;46.90
30999;DHT22;20549;50.042;8.968;2023-04-03T08:55:33;21.20;46.50
30999;DHT22;20549;50.042;8.968;2023-04-03T08:58:02;20.90;46.80
30999;DHT22;20549;50.042;8.968;2023-04-03T09:00:29;20.50;46.30
30999;DHT22;20549;50.042;8.968;2023-04-03T09:02:55;19.90;46.10
30999;DHT22;20549;50.042;8.968;2023-04-03T09:08:18;18.60;46.20
30999;DHT22;20549;50.042;8.968;2023-04-03T09:10:41;18.00;46.70
30999;DHT22;20549;50.042;8.968;2023-04-03T09:15:40;17.00;48.00
30999;DHT22;20549;50.042;8.968;2023-04-03T09:23:30;16.20;48.80
30999;DHT22;20549;50.042;8.968;2023-04-03T09:26:06;16.10;48.30
30999;DHT22;20549;50.042;8.968;2023-04-03T09:28:35;15.90;49.20
30999;DHT22;20549;50.042;8.968;2023-04-03T09:31:18;15.60;48.90
30999;DHT22;20549;50.042;8.968;2023-04-03T09:33:27;15.50;49.20
30999;DHT22;20549;50.042;8.968;2023-04-03T09:35:54;15.30;50.00
30999;DHT22;20549;50.042;8.968;2023-04-03T09:38:21;15.10;49.00
30999;DHT22;20549;50.042;8.968;2023-04-03T09:40:48;14.90;49.30
30999;DHT22;20549;50.042;8.968;2023-04-03T09:45:44;14.30;48.40
30999;DHT22;20549;50.042;8.968;2023-04-03T09:53:43;13.40;50.10
30999;DHT22;20549;50.042;8.968;2023-04-03T09:58:50;13.20;51.50
30999;DHT22;20549;50.042;8.968;2023-04-03T10:01:28;13.20;52.00
30999;DHT22;20549;50.042;8.968;2023-04-03T10:04:17;13.30;52.50
30999;DHT22;20549;50.042;8.968;2023-04-03T10:06:43;13.40;52.20
30999;DHT22;20549;50.042;8.968;2023-04-03T10:09:28;13.40;52.40
30999;DHT22;20549;50.042;8.968;2023-04-03T10:12:00;13.40;52.60
30999;DHT22;20549;50.042;8.968;2023-04-03T10:14:23;13.50;52.80
30999;DHT22;20549;50.042;8.968;2023-04-03T10:19:36;13.60;52.40
30999;DHT22;20549;50.042;8.968;2023-04-03T10:28:09;13.50;51.60
30999;DHT22;20549;50.042;8.968;2023-04-03T10:33:04;13.30;50.30
30999;DHT22;20549;50.042;8.968;2023-04-03T10:35:33;13.20;49.90
30999;DHT22;20549;50.042;8.968;2023-04-03T10:38:08;13.00;50.20
30999;DHT22;20549;50.042;8.968;2023-04-03T10:40:34;12.90;50.90
30999;DHT22;20549;50.042;8.968;2023-04-03T10:43:08;12.70;51.40
30999;DHT22;20549;50.042;8.968;2023-04-03T10:45:48;12.70;51.60
30999;DHT22;20549;50.042;8.968;2023-04-03T10:48:21;12.60;51.60
30999;DHT22;20549;50.042;8.968;2023-04-03T10:50:57;12.60;52.30
30999;DHT22;20549;50.042;8.968;2023-04-03T10:56:01;12.70;52.40
30999;DHT22;20549;50.042;8.968;2023-04-03T10:58:34;12.70;51.60
30999;DHT22;20549;50.042;8.968;2023-04-03T11:01:16;12.70;51.60
30999;DHT22;20549;50.042;8.968;2023-04-03T11:03:43;12.80;51.80
30999;DHT22;20549;50.042;8.968;2023-04-03T11:06:11;12.80;51.70
30999;DHT22;20549;50.042;8.968;2023-04-03T11:08:48;12.80;50.70
30999;DHT22;20549;50.042;8.968;2023-04-03T11:11:09;12.70;50.60
30999;DHT22;20549;50.042;8.968;2023-04-03T11:13:38;12.60;50.60
30999;DHT22;20549;50.042;8.968;2023-04-03T11:16:02;12.60;50.70
30999;DHT22;20549;50.042;8.968;2023-04-03T11:18:42;12.50;49.10
30999;DHT22;20549;50.042;8.968;2023-04-03T11:21:07;12.40;49.60
30999;DHT22;20549;50.042;8.968;2023-04-03T11:23:34;12.40;49.60
30999;DHT22;20549;50.042;8.968;2023-04-03T11:26:13;12.30;49.00
30999;DHT22;20549;50.042;8.968;2023-04-03T11:28:39;12.20;49.30
30999;DHT22;20549;50.042;8.968;2023-04-03T11:31:24;12.10;49.70
30999;DHT22;20549;50.042;8.968;2023-04-03T11:34:03;12.00;49.80
30999;DHT22;20549;50.042;8.968;2023-04-03T11:36:26;11.90;49.90
30999;DHT22;20549;50.042;8.968;2023-04-03T11:38:52;11.90;50.30
30999;DHT22;20549;50.042;8.968;2023-04-03T11:41:18;11.80;50.00
30999;DHT22;20549;50.042;8.968;2023-04-03T11:44:04;11.80;50.00
30999;DHT22;20549;50.042;8.968;2023-04-03T11:47:07;11.80;50.20
30999;DHT22;20549;50.042;8.968;2023-04-03T11:49:52;11.80;50.20
30999;DHT22;20549;50.042;8.968;2023-04-03T12:05:50;11.70;49.10
30999;DHT22;20549;50.042;8.968;2023-04-03T12:08:23;11.70;49.40
30999;DHT22;20549;50.042;8.968;2023-04-03T12:10:43;11.60;48.80
30999;DHT22;20549;50.042;8.968;2023-04-03T12:13:15;11.60;49.20
30999;DHT22;20549;50.042;8.968;2023-04-03T12:15:44;11.60;49.60
30999;DHT22;20549;50.042;8.968;2023-04-03T12:18:40;11.60;50.00
30999;DHT22;20549;50.042;8.968;2023-04-03T12:21:06;11.60;50.20
30999;DHT22;20549;50.042;8.968;2023-04-03T12:23:36;11.60;50.30
30999;DHT22;20549;50.042;8.968;2023-04-03T12:26:06;11.70;49.90
30999;DHT22;20549;50.042;8.968;2023-04-03T12:28:37;11.70;49.00
30999;DHT22;20549;50.042;8.968;2023-04-03T12:31:03;11.70;49.00
30999;DHT22;20549;50.042;8.968;2023-04-03T12:34:00;11.70;48.90
30999;DHT22;20549;50.042;8.968;2023-04-03T12:36:34;11.70;49.10
30999;DHT22;20549;50.042;8.968;2023-04-03T12:41:58;11.70;49.10
30999;DHT22;20549;50.042;8.968;2023-04-03T12:44:25;11.70;49.40
30999;DHT22;20549;50.042;8.968;2023-04-03T12:46:49;11.60;49.60
30999;DHT22;20549;50.042;8.968;2023-04-03T12:49:41;11.60;49.80
30999;DHT22;20549;50.042;8.968;2023-04-03T12:52:16;11.60;50.00
30999;DHT22;20549;50.042;8.968;2023-04-03T12:54:39;11.60;50.20
30999;DHT22;20549;50.042;8.968;2023-04-03T12:57:26;11.60;50.10
30999;DHT22;20549;50.042;8.968;2023-04-03T12:59:53;11.60;49.80
30999;DHT22;20549;50.042;8.968;2023-04-03T13:02:29;11.70;49.90
30999;DHT22;20549;50.042;8.968;2023-04-03T13:04:55;11.70;49.40
30999;DHT22;20549;50.042;8.968;2023-04-03T13:07:22;11.70;49.60
30999;DHT22;20549;50.042;8.968;2023-04-03T13:10:35;11.60;49.60
30999;DHT22;20549;50.042;8.968;2023-04-03T13:12:15;11.60;49.20
30999;DHT22;20549;50.042;8.968;2023-04-03T13:14:50;11.60;49.00
30999;DHT22;20549;50.042;8.968;2023-04-03T13:17:11;11.60;49.30
30999;DHT22;20549;50.042;8.968;2023-04-03T13:19:36;11.60;49.50
30999;DHT22;20549;50.042;8.968;2023-04-03T13:22:11;11.60;49.40
30999;DHT22;20549;50.042;8.968;2023-04-03T13:24:34;11.60;49.60
30999;DHT22;20549;50.042;8.968;2023-04-03T13:26:59;11.60;49.60
30999;DHT22;20549;50.042;8.968;2023-04-03T13:29:36;11.60;49.70
30999;DHT22;20549;50.042;8.968;2023-04-03T13:31:53;11.60;49.70
30999;DHT22;20549;50.042;8.968;2023-04-03T13:34:19;11.60;49.20
30999;DHT22;20549;50.042;8.968;2023-04-03T13:39:24;11.60;49.60
30999;DHT22;20549;50.042;8.968;2023-04-03T13:41:48;11.60;49.70
30999;DHT22;20549;50.042;8.968;2023-04-03T13:46:53;11.60;49.90
30999;DHT22;20549;50.042;8.968;2023-04-03T13:49:20;11.70;49.70
30999;DHT22;20549;50.042;8.968;2023-04-03T13:51:45;11.70;49.70
30999;DHT22;20549;50.042;8.968;2023-04-03T13:54:22;11.70;49.80
30999;DHT22;20549;50.042;8.968;2023-04-03T13:56:52;11.70;49.60
30999;DHT22;20549;50.042;8.968;2023-04-03T14:01:45;11.70;48.90
30999;DHT22;20549;50.042;8.968;2023-04-03T14:04:17;11.60;49.00
30999;DHT22;20549;50.042;8.968;2023-04-03T14:06:40;11.60;49.20
30999;DHT22;20549;50.042;8.968;2023-04-03T14:09:06;11.60;49.40
30999;DHT22;20549;50.042;8.968;2023-04-03T14:11:33;11.60;49.20
30999;DHT22;20549;50.042;8.968;2023-04-03T14:14:05;11.60;49.60
30999;DHT22;20549;50.042;8.968;2023-04-03T14:16:29;11.50;49.30
30999;DHT22;20549;50.042;8.968;2023-04-03T14:18:55;11.50;49.60
30999;DHT22;20549;50.042;8.968;2023-04-03T14:21:22;11.50;49.60
30999;DHT22;20549;50.042;8.968;2023-04-03T14:23:49;11.50;49.50
30999;DHT22;20549;50.042;8.968;2023-04-03T14:26:19;11.50;49.50
30999;DHT22;20549;50.042;8.968;2023-04-03T14:28:44;11.50;49.10
30999;DHT22;20549;50.042;8.968;2023-04-03T14:31:11;11.50;49.70
30999;DHT22;20549;50.042;8.968;2023-04-03T14:33:37;11.50;49.70
30999;DHT22;20549;50.042;8.968;2023-04-03T14:36:14;11.50;49.60
30999;DHT22;20549;50.042;8.968;2023-04-03T14:38:37;11.50;49.60
30999;DHT22;20549;50.042;8.968;2023-04-03T14:41:03;11.50;49.60
30999;DHT22;20549;50.042;8.968;2023-04-03T14:43:30;11.50;49.60
30999;DHT22;20549;50.042;8.968;2023-04-03T14:45:56;11.50;48.90
30999;DHT22;20549;50.042;8.968;2023-04-03T14:48:24;11.50;49.20
30999;DHT22;20549;50.042;8.968;2023-04-03T14:50:50;11.40;49.10
30999;DHT22;20549;50.042;8.968;2023-04-03T14:53:16;11.40;48.50
30999;DHT22;20549;50.042;8.968;2023-04-03T14:55:44;11.40;49.00
30999;DHT22;20549;50.042;8.968;2023-04-03T14:58:16;11.40;49.00
30999;DHT22;20549;50.042;8.968;2023-04-03T15:00:38;11.30;49.00
30999;DHT22;20549;50.042;8.968;2023-04-03T15:03:05;11.30;49.20
30999;DHT22;20549;50.042;8.968;2023-04-03T15:05:32;11.30;49.40
30999;DHT22;20549;50.042;8.968;2023-04-03T15:07:58;11.30;49.40
30999;DHT22;20549;50.042;8.968;2023-04-03T15:10:28;11.30;49.50
30999;DHT22;20549;50.042;8.968;2023-04-03T15:12:55;11.30;49.60
30999;DHT22;20549;50.042;8.968;2023-04-03T15:15:21;11.30;49.80
30999;DHT22;20549;50.042;8.968;2023-04-03T15:17:50;11.40;49.90
30999;DHT22;20549;50.042;8.968;2023-04-03T15:20:18;11.40;49.80
30999;DHT22;20549;50.042;8.968;2023-04-03T15:22:44;11.40;49.70
30999;DHT22;20549;50.042;8.968;2023-04-03T15:25:10;11.40;49.40
30999;DHT22;20549;50.042;8.968;2023-04-03T15:27:37;11.40;49.60
30999;DHT22;20549;50.042;8.968;2023-04-03T15:30:04;11.30;49.10
30999;DHT22;20549;50.042;8.968;2023-04-03T15:32:30;11.30;48.70
30999;DHT22;20549;50.042;8.968;2023-04-03T15:34:56;11.30;48.90
30999;DHT22;20549;50.042;8.968;2023-04-03T15:37:23;11.30;49.10
30999;DHT22;20549;50.042;8.968;2023-04-03T15:39:50;11.20;49.00
30999;DHT22;20549;50.042;8.968;2023-04-03T15:42:16;11.20;49.10
30999;DHT22;20549;50.042;8.968;2023-04-03T15:44:43;11.10;48.90
30999;DHT22;20549;50.042;8.968;2023-04-03T15:47:09;11.10;49.20
30999;DHT22;20549;50.042;8.968;2023-04-03T15:49:36;11.10;49.30
30999;DHT22;20549;50.042;8.968;2023-04-03T15:52:03;11.10;49.40
30999;DHT22;20549;50.042;8.968;2023-04-03T15:54:29;11.00;49.10
30999;DHT22;20549;50.042;8.968;2023-04-03T15:56:56;11.00;49.40
30999;DHT22;20549;50.042;8.968;2023-04-03T15:59:22;11.00;48.80
30999;DHT22;20549;50.042;8.968;2023-04-03T16:01:49;11.00;49.20
30999;DHT22;20549;50.042;8.968;2023-04-03T16:04:15;11.00;49.20
30999;DHT22;20549;50.042;8.968;2023-04-03T16:06:42;11.00;49.30
30999;DHT22;20549;50.042;8.968;2023-04-03T16:09:09;11.00;49.00
30999;DHT22;20549;50.042;8.968;2023-04-03T16:11:35;10.90;49.20
30999;DHT22;20549;50.042;8.968;2023-04-03T16:14:02;10.90;48.90
30999;DHT22;20549;50.042;8.968;2023-04-03T16:16:29;10.90;48.80
30999;DHT22;20549;50.042;8.968;2023-04-03T16:18:55;10.90;49.00
30999;DHT22;20549;50.042;8.968;2023-04-03T16:21:22;10.80;49.00
30999;DHT22;20549;50.042;8.968;2023-04-03T16:23:48;10.80;48.80
30999;DHT22;20549;50.042;8.968;2023-04-03T16:26:15;10.80;48.70
30999;DHT22;20549;50.042;8.968;2023-04-03T16:28:41;10.80;48.90
30999;DHT22;20549;50.042;8.968;2023-04-03T16:31:08;10.70;49.00
30999;DHT22;20549;50.042;8.968;2023-04-03T16:33:34;10.70;48.80
30999;DHT22;20549;50.042;8.968;2023-04-03T16:36:01;10.70;48.80
30999;DHT22;20549;50.042;8.968;2023-04-03T16:38:28;10.60;49.00
30999;DHT22;20549;50.042;8.968;2023-04-03T16:40:54;10.60;49.10
30999;DHT22;20549;50.042;8.968;2023-04-03T16:43:21;10.50;49.10
30999;DHT22;20549;50.042;8.968;2023-04-03T16:45:47;10.50;49.30
30999;DHT22;20549;50.042;8.968;2023-04-03T16:48:14;10.50;49.10